createdAt,value
2023-01-19T00:00:47.373Z,2.80
2023-01-19T00:03:34.557Z,2.90
2023-01-19T00:06:19.790Z,2.65
2023-01-19T00:09:05.559Z,2.92
2023-01-19T00:11:50.992Z,2.58
2023-01-19T00:14:36.698Z,2.67
2023-01-19T00:17:22.335Z,2.70
2023-01-19T00:20:09.080Z,2.55
2023-01-19T00:22:54.558Z,1.95
2023-01-19T00:25:42.503Z,1.60
2023-01-19T00:28:28.116Z,1.65
2023-01-19T00:31:14.623Z,1.70
2023-01-19T00:33:59.959Z,1.20
2023-01-19T00:36:46.877Z,1.38
2023-01-19T00:39:32.775Z,1.13
2023-01-19T00:42:36.760Z,1.15
2023-01-19T00:45:24.541Z,1.52
2023-01-19T00:48:09.981Z,1.77
2023-01-19T00:50:56.028Z,1.55
2023-01-19T00:53:41.494Z,2.13
2023-01-19T00:56:27.175Z,1.67
2023-01-19T00:59:12.732Z,1.58
2023-01-19T01:01:58.436Z,2.05
2023-01-19T01:04:44.332Z,1.90
2023-01-19T01:07:30.679Z,1.77
2023-01-19T01:10:27.027Z,1.35
2023-01-19T01:13:20.257Z,1.83
2023-01-19T01:16:09.765Z,2.55
2023-01-19T01:18:58.320Z,2.08
2023-01-19T01:21:43.770Z,2.10
2023-01-19T01:24:32.211Z,1.63
2023-01-19T01:27:17.911Z,1.80
2023-01-19T01:30:06.460Z,1.90
2023-01-19T01:32:51.966Z,1.92
2023-01-19T01:35:37.547Z,1.83
2023-01-19T01:38:23.244Z,1.70
2023-01-19T01:41:09.493Z,1.20
2023-01-19T01:43:58.681Z,1.10
2023-01-19T01:46:44.275Z,1.50
2023-01-19T01:49:34.402Z,1.17
2023-01-19T01:52:23.110Z,1.42
2023-01-19T01:55:15.268Z,1.20
2023-01-19T01:58:04.396Z,1.58
2023-01-19T02:01:08.493Z,1.50
2023-01-19T02:03:58.420Z,1.40
2023-01-19T02:07:04.552Z,1.20
2023-01-19T02:10:14.568Z,1.88
2023-01-19T02:13:18.455Z,1.38
2023-01-19T02:16:07.380Z,1.85
2023-01-19T02:18:57.805Z,1.58
2023-01-19T02:22:09.773Z,1.60
2023-01-19T02:24:54.967Z,1.40
2023-01-19T02:27:40.448Z,2.10
2023-01-19T02:30:29.321Z,1.92
2023-01-19T02:33:14.408Z,1.85
2023-01-19T02:36:00.601Z,1.42
2023-01-19T02:38:49.064Z,1.77
2023-01-19T02:41:40.176Z,1.90
2023-01-19T02:44:27.707Z,1.92
2023-01-19T02:47:13.993Z,1.65
2023-01-19T02:50:00.524Z,1.42
2023-01-19T02:52:46.191Z,1.70
2023-01-19T02:55:32.666Z,1.48
2023-01-19T02:58:41.399Z,2.00
2023-01-19T03:01:52.103Z,2.08
2023-01-19T03:05:15.105Z,1.98
2023-01-19T03:08:39.663Z,2.10
2023-01-19T03:11:33.049Z,2.40
2023-01-19T03:14:28.056Z,3.08
2023-01-19T03:20:03.637Z,1.70
2023-01-19T03:22:55.750Z,1.55
2023-01-19T03:25:47.211Z,1.98
2023-01-19T03:28:35.643Z,2.38
2023-01-19T03:31:25.563Z,2.50
2023-01-19T03:34:13.495Z,1.98
2023-01-19T03:37:04.171Z,2.30
2023-01-19T03:39:50.085Z,2.13
2023-01-19T03:42:37.888Z,1.95
2023-01-19T03:45:23.641Z,1.85
2023-01-19T03:48:09.520Z,1.67
2023-01-19T03:51:02.685Z,1.75
2023-01-19T03:53:50.123Z,1.67
2023-01-19T03:56:35.653Z,2.53
2023-01-19T03:59:21.816Z,2.28
2023-01-19T04:02:07.177Z,2.03
2023-01-19T04:04:52.691Z,1.85
2023-01-19T04:07:39.500Z,2.15
2023-01-19T04:10:25.607Z,2.30
2023-01-19T04:13:10.788Z,2.25
2023-01-19T04:16:03.553Z,2.55
2023-01-19T04:18:50.181Z,3.30
2023-01-19T04:21:35.960Z,2.88
2023-01-19T04:24:22.091Z,3.55
2023-01-19T04:27:07.810Z,3.00
2023-01-19T04:29:53.437Z,3.20
2023-01-19T04:32:38.658Z,3.38
2023-01-19T04:35:26.294Z,3.22
2023-01-19T04:38:11.788Z,3.88
2023-01-19T04:40:57.248Z,4.10
2023-01-19T04:43:42.827Z,3.67
2023-01-19T04:46:28.440Z,3.30
2023-01-19T04:49:14.465Z,3.25
2023-01-19T04:52:01.113Z,5.50
2023-01-19T04:54:46.408Z,4.65
2023-01-19T04:57:32.367Z,4.13
2023-01-19T05:00:19.283Z,3.70
2023-01-19T05:03:05.510Z,3.80
2023-01-19T05:05:51.292Z,5.25
2023-01-19T05:08:38.822Z,3.45
2023-01-19T05:11:27.357Z,4.68
2023-01-19T05:14:12.925Z,3.80
2023-01-19T05:16:58.185Z,3.45
2023-01-19T05:19:43.812Z,4.47
2023-01-19T05:22:29.569Z,4.18
2023-01-19T05:25:16.553Z,3.58
2023-01-19T05:28:02.859Z,3.95
2023-01-19T05:30:50.242Z,4.10
2023-01-19T05:33:36.182Z,4.28
2023-01-19T05:36:21.961Z,3.85
2023-01-19T05:39:07.235Z,5.53
2023-01-19T05:41:52.740Z,4.38
2023-01-19T05:44:38.171Z,3.65
2023-01-19T05:47:30.443Z,4.38
2023-01-19T05:50:18.915Z,4.43
2023-01-19T05:53:04.538Z,3.58
2023-01-19T05:55:50.061Z,4.20
2023-01-19T05:58:38.580Z,4.40
2023-01-19T06:01:25.332Z,3.70
2023-01-19T06:04:13.715Z,3.45
2023-01-19T06:06:59.305Z,4.05
2023-01-19T06:09:44.718Z,3.20
2023-01-19T06:12:30.175Z,4.00
2023-01-19T06:15:15.928Z,3.88
2023-01-19T06:18:01.492Z,3.65
2023-01-19T06:20:46.859Z,4.45
2023-01-19T06:23:34.166Z,4.10
2023-01-19T06:26:19.749Z,3.58
2023-01-19T06:29:05.135Z,3.28
2023-01-19T06:31:50.860Z,3.63
2023-01-19T06:34:36.375Z,3.85
2023-01-19T06:37:21.888Z,3.60
2023-01-19T06:40:08.386Z,3.38
2023-01-19T06:42:53.843Z,3.90
2023-01-19T06:45:39.410Z,4.60
2023-01-19T06:48:25.583Z,3.38
2023-01-19T06:51:10.782Z,3.42
2023-01-19T06:53:56.233Z,2.47
2023-01-19T06:56:41.794Z,2.78
2023-01-19T06:59:27.258Z,2.75
2023-01-19T07:02:27.257Z,2.65
2023-01-19T07:05:14.415Z,3.13
2023-01-19T07:07:59.979Z,2.42
2023-01-19T07:11:26.218Z,3.15
2023-01-19T07:13:57.210Z,4.80
2023-01-19T07:16:45.805Z,2.92
2023-01-19T07:19:31.378Z,3.15
2023-01-19T07:22:17.054Z,3.58
2023-01-19T07:25:02.517Z,3.75
2023-01-19T07:27:47.964Z,2.63
2023-01-19T07:30:33.592Z,3.08
2023-01-19T07:33:23.123Z,3.13
2023-01-19T07:36:09.354Z,2.50
2023-01-19T07:38:54.723Z,3.03
2023-01-19T07:41:41.427Z,2.92
2023-01-19T07:44:27.212Z,2.30
2023-01-19T07:47:12.785Z,3.83
2023-01-19T07:49:58.246Z,2.30
2023-01-19T07:52:44.571Z,2.85
2023-01-19T07:55:30.273Z,2.72
2023-01-19T07:58:15.817Z,2.72
2023-01-19T08:01:05.621Z,2.85
2023-01-19T08:03:51.482Z,3.10
2023-01-19T08:06:39.681Z,2.80
2023-01-19T08:09:25.596Z,3.67
2023-01-19T08:12:11.415Z,3.63
2023-01-19T08:15:02.471Z,2.65
2023-01-19T08:17:58.184Z,2.88
2023-01-19T08:20:43.696Z,2.95
2023-01-19T08:23:29.590Z,2.22
2023-01-19T08:26:20.019Z,2.63
2023-01-19T08:29:06.028Z,2.58
2023-01-19T08:31:53.016Z,3.20
2023-01-19T08:34:38.635Z,2.88
2023-01-19T08:37:27.592Z,2.60
2023-01-19T08:40:14.311Z,3.50
2023-01-19T08:43:05.731Z,3.25
2023-01-19T08:45:53.093Z,3.58
2023-01-19T08:48:39.908Z,3.47
2023-01-19T08:51:28.418Z,4.75
2023-01-19T08:54:14.347Z,3.30
2023-01-19T08:56:59.928Z,3.03
2023-01-19T08:59:50.090Z,3.15
2023-01-19T09:02:35.440Z,3.33
2023-01-19T09:05:21.027Z,3.00
2023-01-19T09:08:09.297Z,3.10
2023-01-19T09:10:54.943Z,2.95
2023-01-19T09:13:41.577Z,3.22
2023-01-19T09:16:27.353Z,2.88
2023-01-19T09:19:14.210Z,2.90
2023-01-19T09:21:59.849Z,3.10
2023-01-19T09:24:45.156Z,2.53
2023-01-19T09:27:34.019Z,2.63
2023-01-19T09:30:19.824Z,2.60
2023-01-19T09:33:07.548Z,3.17
2023-01-19T09:35:52.914Z,3.15
2023-01-19T09:38:44.575Z,2.83
2023-01-19T09:41:39.353Z,3.05
2023-01-19T09:44:35.647Z,3.15
2023-01-19T09:47:27.223Z,3.28
2023-01-19T09:50:28.767Z,2.88
2023-01-19T09:53:21.436Z,3.95
2023-01-19T09:56:15.154Z,3.20
2023-01-19T09:59:00.943Z,3.30
2023-01-19T10:01:58.174Z,3.35
2023-01-19T10:05:04.119Z,3.85
2023-01-19T10:08:09.564Z,3.28
2023-01-19T10:13:51.802Z,3.03
2023-01-19T10:17:00.820Z,2.17
2023-01-19T10:19:51.921Z,2.47
2023-01-19T10:22:38.850Z,2.35
2023-01-19T10:25:27.734Z,1.95
2023-01-19T10:28:14.473Z,1.73
2023-01-19T10:31:00.619Z,2.10
2023-01-19T10:33:46.303Z,2.45
2023-01-19T10:36:37.508Z,2.17
2023-01-19T10:39:24.514Z,1.80
2023-01-19T10:42:15.337Z,1.75
2023-01-19T10:45:03.366Z,1.80
2023-01-19T10:47:49.540Z,1.98
2023-01-19T10:50:41.347Z,1.80
2023-01-19T10:53:29.409Z,1.60
2023-01-19T10:56:21.296Z,2.28
2023-01-19T10:59:07.612Z,1.80
2023-01-19T11:02:17.185Z,1.67
2023-01-19T11:05:23.948Z,1.95
2023-01-19T11:08:23.831Z,1.40
2023-01-19T11:11:09.939Z,1.73
2023-01-19T11:14:12.544Z,1.80
2023-01-19T11:16:59.002Z,1.52
2023-01-19T11:19:54.575Z,1.95
2023-01-19T11:22:39.765Z,2.03
2023-01-19T11:25:31.643Z,1.70
2023-01-19T11:28:39.200Z,1.65
2023-01-19T11:31:28.117Z,2.30
2023-01-19T11:34:33.422Z,1.92
2023-01-19T11:37:19.867Z,1.30
2023-01-19T11:40:08.833Z,1.60
2023-01-19T11:42:56.467Z,1.70
2023-01-19T11:45:42.329Z,1.77
2023-01-19T11:48:43.064Z,1.85
2023-01-19T11:51:39.857Z,1.58
2023-01-19T11:54:30.793Z,1.85
2023-01-19T11:57:20.787Z,1.67
2023-01-19T12:00:38.277Z,1.85
2023-01-19T12:03:43.552Z,1.58
2023-01-19T12:06:35.819Z,1.77
2023-01-19T12:09:34.267Z,1.88
2023-01-19T12:12:35.372Z,1.60
2023-01-19T12:15:37.783Z,1.65
2023-01-19T12:18:26.900Z,1.77
2023-01-19T12:21:12.352Z,2.00
2023-01-19T12:24:20.929Z,1.52
2023-01-19T12:27:37.928Z,1.67
2023-01-19T12:30:26.510Z,2.13
2023-01-19T12:33:37.721Z,1.92
2023-01-19T12:36:40.911Z,1.70
2023-01-19T12:39:26.539Z,2.35
2023-01-19T12:42:15.956Z,1.55
2023-01-19T12:45:09.101Z,1.95
2023-01-19T12:47:58.529Z,1.83
2023-01-19T12:50:47.025Z,1.55
2023-01-19T12:53:34.291Z,2.13
2023-01-19T12:56:20.556Z,1.98
2023-01-19T12:59:22.117Z,1.65
2023-01-19T13:02:27.068Z,2.08
2023-01-19T13:05:36.594Z,1.73
2023-01-19T13:08:43.478Z,1.77
2023-01-19T13:11:34.084Z,1.98
2023-01-19T13:14:37.351Z,1.77
2023-01-19T13:17:33.527Z,1.77
2023-01-19T13:20:27.664Z,2.10
2023-01-19T13:23:19.120Z,1.67
2023-01-19T13:26:14.168Z,1.60
2023-01-19T13:29:14.637Z,1.48
2023-01-19T13:32:04.974Z,1.67
2023-01-19T13:35:01.989Z,1.52
2023-01-19T13:37:49.384Z,1.65
2023-01-19T13:40:38.971Z,1.52
2023-01-19T13:43:35.303Z,1.73
2023-01-19T13:46:20.916Z,1.38
2023-01-19T13:49:21.099Z,1.20
2023-01-19T13:52:26.310Z,1.40
2023-01-19T13:55:22.694Z,1.55
2023-01-19T13:58:22.309Z,2.13
2023-01-19T14:01:20.903Z,1.70
2023-01-19T14:04:07.005Z,1.35
2023-01-19T14:06:55.736Z,1.55
2023-01-19T14:09:41.194Z,1.40
2023-01-19T14:12:26.615Z,1.85
2023-01-19T14:15:16.142Z,1.52
2023-01-19T14:18:08.796Z,1.58
2023-01-19T14:20:57.257Z,1.77
2023-01-19T14:23:50.296Z,1.40
2023-01-19T14:26:43.489Z,1.40
2023-01-19T14:29:34.470Z,1.17
2023-01-19T14:32:44.484Z,1.48
2023-01-19T14:35:31.390Z,1.80
2023-01-19T14:38:17.884Z,1.50
2023-01-19T14:41:03.120Z,1.45
2023-01-19T14:43:48.420Z,1.58
2023-01-19T14:46:34.148Z,1.70
2023-01-19T14:49:41.142Z,1.55
2023-01-19T14:52:36.856Z,1.70
2023-01-19T14:55:31.347Z,1.40
2023-01-19T14:58:19.726Z,1.60
2023-01-19T15:01:09.005Z,2.10
2023-01-19T15:03:58.142Z,1.50
2023-01-19T15:06:45.923Z,1.67
2023-01-19T15:09:31.443Z,1.77
2023-01-19T15:12:18.483Z,1.63
2023-01-19T15:15:04.241Z,1.80
2023-01-19T15:17:56.641Z,1.63
2023-01-19T15:20:44.693Z,1.92
2023-01-19T15:23:33.231Z,2.08
2023-01-19T15:26:21.769Z,2.65
2023-01-19T15:29:22.824Z,1.80
2023-01-19T15:32:43.624Z,1.98
2023-01-19T15:35:28.975Z,2.35
2023-01-19T15:38:14.426Z,2.45
2023-01-19T15:41:02.716Z,2.40
2023-01-19T15:43:48.562Z,2.10
2023-01-19T15:46:34.607Z,2.10
2023-01-19T15:49:20.227Z,2.08
2023-01-19T15:52:05.779Z,2.20
2023-01-19T15:54:51.096Z,1.90
2023-01-19T15:57:36.680Z,1.95
2023-01-19T16:00:22.341Z,2.20
2023-01-19T16:03:08.417Z,2.00
2023-01-19T16:05:53.920Z,1.95
2023-01-19T16:08:45.306Z,3.22
2023-01-19T16:11:33.403Z,2.58
2023-01-19T16:14:18.566Z,2.45
2023-01-19T16:17:05.781Z,5.13
2023-01-19T16:19:51.170Z,3.47
2023-01-19T16:22:39.912Z,2.83
2023-01-19T16:25:28.001Z,3.05
2023-01-19T16:28:13.594Z,3.28
2023-01-19T16:30:59.559Z,3.13
2023-01-19T16:33:47.795Z,3.35
2023-01-19T16:36:39.200Z,3.20
2023-01-19T16:39:24.641Z,3.47
2023-01-19T16:42:10.032Z,3.17
2023-01-19T16:44:58.811Z,2.92
2023-01-19T16:47:45.478Z,2.63
2023-01-19T16:50:30.600Z,2.83
2023-01-19T16:53:16.156Z,3.60
2023-01-19T16:56:13.410Z,3.08
2023-01-19T16:58:59.594Z,3.15
2023-01-19T17:01:47.490Z,2.60
2023-01-19T17:04:35.382Z,3.60
2023-01-19T17:07:21.109Z,2.92
2023-01-19T17:10:16.357Z,3.22
2023-01-19T17:15:46.771Z,2.72
2023-01-19T17:18:33.777Z,2.10
2023-01-19T17:21:20.070Z,1.73
2023-01-19T17:24:05.766Z,2.22
2023-01-19T17:26:51.277Z,1.80
2023-01-19T17:29:39.714Z,1.77
2023-01-19T17:32:25.061Z,1.33
2023-01-19T17:35:10.837Z,1.50
2023-01-19T17:37:56.867Z,1.40
2023-01-19T17:40:42.507Z,1.58
2023-01-19T17:43:28.014Z,1.70
2023-01-19T17:46:13.673Z,1.80
2023-01-19T17:49:05.063Z,1.63
2023-01-19T17:51:54.829Z,2.90
2023-01-19T17:54:46.700Z,2.85
2023-01-19T17:57:33.322Z,2.15
2023-01-19T18:00:22.292Z,2.53
2023-01-19T18:03:07.997Z,2.53
2023-01-19T18:05:58.505Z,2.97
2023-01-19T18:08:46.593Z,2.17
2023-01-19T18:11:32.140Z,2.00
2023-01-19T18:14:17.501Z,2.40
2023-01-19T18:17:03.004Z,1.88
2023-01-19T18:19:48.996Z,1.90
2023-01-19T18:22:37.206Z,1.55
2023-01-19T18:25:22.372Z,2.22
2023-01-19T18:28:07.585Z,2.25
2023-01-19T18:30:53.467Z,1.60
2023-01-19T18:33:39.577Z,1.25
2023-01-19T18:36:25.311Z,1.58
2023-01-19T18:39:11.167Z,2.20
2023-01-19T18:41:56.569Z,1.83
2023-01-19T18:44:48.184Z,2.55
2023-01-19T18:47:33.890Z,2.30
2023-01-19T18:50:19.532Z,2.67
2023-01-19T18:53:05.547Z,2.50
2023-01-19T18:55:56.003Z,6.03
2023-01-19T18:58:57.261Z,4.47
2023-01-19T19:01:42.902Z,3.67
2023-01-19T19:04:31.936Z,3.50
2023-01-19T19:07:17.520Z,3.45
2023-01-19T19:10:03.837Z,3.65
2023-01-19T19:12:52.034Z,3.88
2023-01-19T19:15:37.688Z,3.13
2023-01-19T19:18:29.086Z,3.78
2023-01-19T19:21:17.386Z,3.92
2023-01-19T19:24:02.855Z,2.30
2023-01-19T19:26:48.220Z,1.77
2023-01-19T19:29:35.153Z,3.38
2023-01-19T19:32:21.070Z,2.65
2023-01-19T19:35:11.401Z,2.30
2023-01-19T19:37:57.784Z,2.15
2023-01-19T19:40:43.516Z,2.00
2023-01-19T19:43:32.306Z,2.17
2023-01-19T19:46:24.174Z,1.70
2023-01-19T19:49:09.933Z,2.40
2023-01-19T19:51:55.450Z,4.03
2023-01-19T19:54:45.289Z,3.38
2023-01-19T19:57:33.791Z,4.28
2023-01-19T20:00:19.449Z,6.03
2023-01-19T20:03:13.452Z,6.20
2023-01-19T20:06:09.799Z,6.38
2023-01-19T20:09:01.276Z,7.28
2023-01-19T20:11:50.024Z,6.75
2023-01-19T20:14:35.228Z,6.80
2023-01-19T20:17:20.975Z,7.25
2023-01-19T20:20:07.885Z,8.20
2023-01-19T20:22:53.209Z,8.15
2023-01-19T20:26:03.561Z,9.00
2023-01-19T20:28:53.078Z,8.80
2023-01-19T20:31:50.732Z,9.55
2023-01-19T20:34:36.899Z,8.50
2023-01-19T20:37:22.516Z,8.52
2023-01-19T20:40:15.560Z,9.40
2023-01-19T20:43:01.040Z,11.23
2023-01-19T20:46:02.381Z,9.85
2023-01-19T20:48:52.937Z,8.35
2023-01-19T20:51:43.203Z,8.95
2023-01-19T20:54:30.361Z,7.85
2023-01-19T20:57:15.933Z,7.97
2023-01-19T21:00:03.733Z,6.25
2023-01-19T21:02:49.254Z,8.02
2023-01-19T21:05:39.340Z,9.38
2023-01-19T21:08:24.779Z,9.88
2023-01-19T21:11:14.954Z,11.02
2023-01-19T21:14:00.640Z,9.85
2023-01-19T21:16:46.146Z,9.77
2023-01-19T21:19:31.622Z,9.43
2023-01-19T21:22:21.273Z,10.70
2023-01-19T21:25:10.033Z,9.60
2023-01-19T21:27:59.259Z,11.30
2023-01-19T21:30:45.013Z,8.98
2023-01-19T21:33:32.441Z,9.13
2023-01-19T21:36:17.803Z,12.38
2023-01-19T21:39:05.361Z,9.50
2023-01-19T21:41:50.822Z,10.95
2023-01-19T21:44:39.483Z,11.40
2023-01-19T21:47:27.907Z,11.48
2023-01-19T21:50:13.213Z,11.43
2023-01-19T21:52:58.841Z,10.90
2023-01-19T21:55:47.735Z,11.20
2023-01-19T21:58:33.532Z,11.32
2023-01-19T22:01:19.292Z,9.05
2023-01-19T22:04:05.257Z,9.32
2023-01-19T22:06:59.945Z,8.32
2023-01-19T22:09:45.505Z,9.23
2023-01-19T22:12:33.721Z,9.35
2023-01-19T22:15:19.048Z,8.70
2023-01-19T22:18:04.645Z,9.85
2023-01-19T22:20:50.112Z,8.95
2023-01-19T22:23:35.577Z,8.90
2023-01-19T22:26:21.213Z,9.20
2023-01-19T22:29:11.293Z,9.18
2023-01-19T22:31:56.617Z,9.70
2023-01-19T22:34:43.055Z,9.80
2023-01-19T22:37:28.712Z,10.05
2023-01-19T22:40:14.548Z,9.20
2023-01-19T22:42:59.819Z,10.48
2023-01-19T22:45:48.455Z,10.27
2023-01-19T22:48:37.331Z,10.57
2023-01-19T22:51:26.028Z,10.43
2023-01-19T22:54:11.699Z,11.10
2023-01-19T22:56:57.084Z,10.57
2023-01-19T22:59:46.406Z,11.63
2023-01-19T23:02:33.424Z,10.30
2023-01-19T23:05:37.397Z,9.80
2023-01-19T23:08:22.916Z,9.30
2023-01-19T23:11:10.926Z,8.60
2023-01-19T23:14:03.707Z,9.23
2023-01-19T23:16:49.748Z,9.18
2023-01-19T23:19:35.529Z,8.88
2023-01-19T23:22:20.757Z,8.80
2023-01-19T23:25:06.953Z,8.75
2023-01-19T23:27:56.873Z,8.13
2023-01-19T23:30:45.020Z,7.20
2023-01-19T23:33:30.346Z,7.85
2023-01-19T23:36:17.020Z,8.88
2023-01-19T23:39:06.044Z,10.70
2023-01-19T23:41:51.608Z,10.18
2023-01-19T23:44:37.900Z,11.20
2023-01-19T23:47:26.077Z,12.15
2023-01-19T23:50:12.010Z,11.77
2023-01-19T23:53:02.004Z,12.70
2023-01-19T23:55:50.455Z,13.82
2023-01-19T23:58:38.432Z,14.43
